createdAt,value
2018-12-19T00:00:24.204Z,17.50
2018-12-19T00:02:52.348Z,15.83
2018-12-19T00:05:20.584Z,14.97
2018-12-19T00:07:48.741Z,15.33
2018-12-19T00:10:16.901Z,14.57
2018-12-19T00:12:45.055Z,13.30
2018-12-19T00:15:13.287Z,13.50
2018-12-19T00:17:41.523Z,14.83
2018-12-19T00:20:09.744Z,17.47
2018-12-19T00:22:37.896Z,18.10
2018-12-19T00:25:06.332Z,18.97
2018-12-19T00:27:34.493Z,16.63
2018-12-19T00:30:02.737Z,16.80
2018-12-19T00:32:30.927Z,13.83
2018-12-19T00:34:59.063Z,16.07
2018-12-19T00:46:07.645Z,15.63
2018-12-19T00:51:26.419Z,15.77
2018-12-19T00:53:54.550Z,17.33
2018-12-19T00:56:22.681Z,15.80
2018-12-19T00:58:50.797Z,15.90
2018-12-19T01:01:19.017Z,16.80
2018-12-19T01:03:47.144Z,16.50
2018-12-19T01:06:15.429Z,15.70
2018-12-19T01:08:43.545Z,16.13
2018-12-19T01:11:11.677Z,15.53
2018-12-19T01:13:39.806Z,16.93
2018-12-19T01:16:08.046Z,16.43
2018-12-19T01:18:36.177Z,17.10
2018-12-19T01:21:04.404Z,17.30
2018-12-19T01:23:32.553Z,16.97
2018-12-19T01:26:01.123Z,17.03
2018-12-19T01:28:29.272Z,19.17
2018-12-19T01:30:57.392Z,16.10
2018-12-19T01:33:25.507Z,17.20
2018-12-19T01:35:53.661Z,17.00
2018-12-19T01:38:21.782Z,15.57
2018-12-19T01:40:49.912Z,14.17
2018-12-19T01:43:18.045Z,15.80
2018-12-19T01:45:46.165Z,15.80
2018-12-19T01:48:14.292Z,16.57
2018-12-19T01:50:42.493Z,15.60
2018-12-19T01:53:10.631Z,15.93
2018-12-19T01:55:39.034Z,17.00
2018-12-19T01:58:07.176Z,17.63
2018-12-19T02:00:35.292Z,16.23
2018-12-19T02:03:03.501Z,15.30
2018-12-19T02:05:31.613Z,15.23
2018-12-19T02:07:59.744Z,15.03
2018-12-19T02:10:27.863Z,15.20
2018-12-19T02:12:55.985Z,17.27
2018-12-19T02:15:24.108Z,17.03
2018-12-19T02:17:52.330Z,15.67
2018-12-19T02:20:20.599Z,15.67
2018-12-19T02:22:48.724Z,20.00
2018-12-19T02:25:16.935Z,15.43
2018-12-19T02:27:45.071Z,14.63
2018-12-19T02:30:13.280Z,16.40
2018-12-19T02:32:41.507Z,13.20
2018-12-19T02:35:09.858Z,16.00
2018-12-19T02:37:37.981Z,14.27
2018-12-19T02:40:06.260Z,16.17
2018-12-19T02:42:34.463Z,17.30
2018-12-19T02:45:02.576Z,15.20
2018-12-19T02:47:30.699Z,15.63
2018-12-19T02:49:58.819Z,16.07
2018-12-19T02:52:26.961Z,12.53
2018-12-19T02:54:55.153Z,14.03
2018-12-19T02:57:23.277Z,14.03
2018-12-19T02:59:51.468Z,14.87
2018-12-19T03:02:19.613Z,16.03
2018-12-19T03:04:47.735Z,15.47
2018-12-19T03:07:15.865Z,13.43
2018-12-19T03:09:43.986Z,15.33
2018-12-19T03:12:12.365Z,14.30
2018-12-19T03:14:40.484Z,13.60
2018-12-19T03:17:08.620Z,14.27
2018-12-19T03:19:36.725Z,14.97
2018-12-19T03:22:04.849Z,13.07
2018-12-19T03:24:32.969Z,12.07
2018-12-19T03:27:01.091Z,16.47
2018-12-19T03:29:29.209Z,13.60
2018-12-19T03:31:57.337Z,13.23
2018-12-19T03:34:25.531Z,13.43
2018-12-19T03:36:53.652Z,13.00
2018-12-19T03:39:21.774Z,13.30
2018-12-19T03:41:56.540Z,12.17
2018-12-19T03:44:24.659Z,13.73
2018-12-19T03:46:52.999Z,15.93
2018-12-19T03:49:21.193Z,13.43
2018-12-19T03:51:49.581Z,12.03
2018-12-19T03:54:18.063Z,12.10
2018-12-19T03:56:46.729Z,13.23
2018-12-19T03:59:14.864Z,11.03
2018-12-19T04:01:43.018Z,12.43
2018-12-19T04:04:11.123Z,11.10
2018-12-19T04:06:39.466Z,12.63
2018-12-19T04:09:07.749Z,13.90
2018-12-19T04:11:35.861Z,12.60
2018-12-19T04:14:03.990Z,15.37
2018-12-19T04:16:32.136Z,11.97
2018-12-19T04:19:00.258Z,12.40
2018-12-19T04:21:28.397Z,15.10
2018-12-19T04:23:56.549Z,13.20
2018-12-19T04:26:24.764Z,13.63
2018-12-19T04:28:52.920Z,11.60
2018-12-19T04:31:21.101Z,13.87
2018-12-19T04:33:49.219Z,14.60
2018-12-19T04:36:17.414Z,14.80
2018-12-19T04:38:45.831Z,16.17
2018-12-19T04:41:14.125Z,12.40
2018-12-19T04:43:42.288Z,12.70
2018-12-19T04:46:10.401Z,14.87
2018-12-19T04:48:38.532Z,15.47
2018-12-19T04:51:06.645Z,13.47
2018-12-19T04:53:34.789Z,15.93
2018-12-19T04:56:02.999Z,13.17
2018-12-19T04:58:31.120Z,13.83
2018-12-19T05:00:59.239Z,17.43
2018-12-19T05:03:27.361Z,15.90
2018-12-19T05:05:55.551Z,16.00
2018-12-19T05:08:23.679Z,16.53
2018-12-19T05:10:51.789Z,17.27
2018-12-19T05:13:19.950Z,19.27
2018-12-19T05:15:48.227Z,15.70
2018-12-19T05:18:16.576Z,19.27
2018-12-19T05:20:44.778Z,18.77
2018-12-19T05:23:12.964Z,17.43
2018-12-19T05:25:41.093Z,16.83
2018-12-19T05:28:09.208Z,18.97
2018-12-19T05:30:37.461Z,17.53
2018-12-19T05:33:05.590Z,16.00
2018-12-19T05:35:33.735Z,17.40
2018-12-19T05:38:02.201Z,18.53
2018-12-19T05:40:30.397Z,18.83
2018-12-19T05:42:58.525Z,19.50
2018-12-19T05:45:26.724Z,19.73
2018-12-19T05:47:54.882Z,21.17
2018-12-19T05:50:26.013Z,16.40
2018-12-19T05:52:54.120Z,20.47
2018-12-19T05:55:22.256Z,16.33
2018-12-19T05:57:50.379Z,19.00
2018-12-19T06:00:18.653Z,16.10
2018-12-19T06:02:46.777Z,34.43
2018-12-19T06:05:14.997Z,24.97
2018-12-19T06:07:43.719Z,70.30
2018-12-19T06:10:12.059Z,19.80
2018-12-19T06:12:40.191Z,18.93
2018-12-19T06:15:08.486Z,15.57
2018-12-19T06:17:36.629Z,20.33
2018-12-19T06:20:05.326Z,19.20
2018-12-19T06:22:33.446Z,19.20
2018-12-19T06:25:01.601Z,17.97
2018-12-19T06:27:29.727Z,19.57
2018-12-19T06:29:57.941Z,17.37
2018-12-19T06:32:26.075Z,20.60
2018-12-19T06:34:54.294Z,17.13
2018-12-19T06:37:22.441Z,17.10
2018-12-19T06:39:50.573Z,21.33
2018-12-19T06:42:18.711Z,20.33
2018-12-19T06:44:46.845Z,17.97
2018-12-19T06:47:15.095Z,18.70
2018-12-19T06:49:43.241Z,21.60
2018-12-19T06:52:11.452Z,18.13
2018-12-19T06:54:39.583Z,20.33
2018-12-19T06:57:07.702Z,18.93
2018-12-19T06:59:35.906Z,22.37
2018-12-19T07:02:04.113Z,21.90
2018-12-19T07:04:32.244Z,25.33
2018-12-19T07:07:00.445Z,21.73
2018-12-19T07:09:28.618Z,26.40
2018-12-19T07:11:56.729Z,23.90
2018-12-19T07:14:24.865Z,25.13
2018-12-19T07:16:53.065Z,21.43
2018-12-19T07:19:21.191Z,29.47
2018-12-19T07:21:49.319Z,27.40
2018-12-19T07:24:17.461Z,23.80
2018-12-19T07:26:45.580Z,22.77
2018-12-19T07:29:13.713Z,29.97
2018-12-19T07:31:41.873Z,31.33
2018-12-19T07:34:10.085Z,31.47
2018-12-19T07:36:38.277Z,31.47
2018-12-19T07:39:07.573Z,35.27
2018-12-19T07:41:35.992Z,26.40
2018-12-19T07:44:04.383Z,32.30
2018-12-19T07:46:32.576Z,22.00
2018-12-19T07:49:00.712Z,25.60
2018-12-19T07:51:28.842Z,31.37
2018-12-19T07:53:56.978Z,27.03
2018-12-19T07:56:25.104Z,25.40
2018-12-19T07:58:53.267Z,37.67
2018-12-19T08:01:21.404Z,33.73
2018-12-19T08:03:49.521Z,27.40
2018-12-19T08:06:17.806Z,22.73
2018-12-19T08:08:46.000Z,23.83
2018-12-19T08:11:14.153Z,24.30
2018-12-19T08:13:42.354Z,22.97
2018-12-19T08:16:10.590Z,21.67
2018-12-19T08:18:38.707Z,20.57
2018-12-19T08:21:06.855Z,20.30
2018-12-19T08:23:35.141Z,22.93
2018-12-19T08:26:03.284Z,15.57
2018-12-19T08:28:31.400Z,22.10
2018-12-19T08:30:59.537Z,19.90
2018-12-19T08:33:27.666Z,16.40
2018-12-19T08:35:55.797Z,18.83
2018-12-19T08:38:23.915Z,21.43
2018-12-19T08:40:58.564Z,20.20
2018-12-19T08:43:22.182Z,18.60
2018-12-19T08:45:50.870Z,26.90
2018-12-19T08:48:18.993Z,22.37
2018-12-19T08:50:47.200Z,21.60
2018-12-19T08:53:15.337Z,19.27
2018-12-19T08:55:43.487Z,28.33
2018-12-19T08:58:11.629Z,24.53
2018-12-19T09:00:46.532Z,20.07
2018-12-19T09:03:14.652Z,24.93
2018-12-19T09:05:42.798Z,21.90
2018-12-19T09:08:11.077Z,22.50
2018-12-19T09:10:39.218Z,26.77
2018-12-19T09:13:07.354Z,17.30
2018-12-19T09:15:40.955Z,22.13
2018-12-19T09:18:09.092Z,18.77
2018-12-19T09:20:37.316Z,24.67
2018-12-19T09:23:05.530Z,28.20
2018-12-19T09:25:33.738Z,37.77
2018-12-19T09:28:02.852Z,23.27
2018-12-19T09:30:30.981Z,16.43
2018-12-19T09:32:59.107Z,40.27
2018-12-19T09:35:27.317Z,32.33
2018-12-19T09:37:55.445Z,26.07
2018-12-19T09:40:23.585Z,20.53
2018-12-19T09:42:51.718Z,18.73
2018-12-19T09:45:19.850Z,19.10
2018-12-19T09:47:47.973Z,21.33
2018-12-19T09:50:16.269Z,15.80
2018-12-19T09:52:44.396Z,15.90
2018-12-19T09:55:12.621Z,18.27
2018-12-19T09:57:40.965Z,19.93
2018-12-19T10:00:14.787Z,17.90
2018-12-19T10:02:42.954Z,14.70
2018-12-19T10:05:11.470Z,16.50
2018-12-19T10:07:39.613Z,17.60
2018-12-19T10:10:07.849Z,18.97
2018-12-19T10:12:36.053Z,17.60
2018-12-19T10:15:04.460Z,17.80
2018-12-19T10:17:32.788Z,14.90
2018-12-19T10:20:01.005Z,14.93
2018-12-19T10:22:32.666Z,14.83
2018-12-19T10:25:06.872Z,19.93
2018-12-19T10:27:34.990Z,13.10
2018-12-19T10:30:03.484Z,16.60
2018-12-19T10:32:37.140Z,17.77
2018-12-19T10:35:05.368Z,17.50
2018-12-19T10:37:33.577Z,15.73
2018-12-19T10:40:01.863Z,19.27
2018-12-19T10:42:30.004Z,19.07
2018-12-19T10:44:58.126Z,18.43
2018-12-19T10:47:26.256Z,25.50
2018-12-19T10:49:54.359Z,22.57
2018-12-19T10:52:22.579Z,22.97
2018-12-19T10:54:50.710Z,15.77
2018-12-19T10:57:18.924Z,15.97
2018-12-19T10:59:47.121Z,12.00
2018-12-19T11:02:15.248Z,14.93
2018-12-19T11:04:43.459Z,14.80
2018-12-19T11:07:11.676Z,14.17
2018-12-19T11:09:39.802Z,14.87
2018-12-19T11:12:07.993Z,14.07
2018-12-19T11:14:36.121Z,15.53
2018-12-19T11:17:04.546Z,13.50
2018-12-19T11:19:32.760Z,16.70
2018-12-19T11:22:01.096Z,13.87
2018-12-19T11:24:29.220Z,13.23
2018-12-19T11:26:57.356Z,15.30
2018-12-19T11:29:25.485Z,10.93
2018-12-19T11:31:53.714Z,10.90
2018-12-19T11:34:21.885Z,11.47
2018-12-19T11:36:50.049Z,10.77
2018-12-19T11:39:18.265Z,9.77
2018-12-19T11:41:46.397Z,10.20
2018-12-19T11:44:14.515Z,10.00
2018-12-19T11:46:42.639Z,10.73
2018-12-19T11:49:11.149Z,11.40
2018-12-19T11:51:39.284Z,8.30
2018-12-19T11:54:07.498Z,12.00
2018-12-19T11:56:35.710Z,8.63
2018-12-19T11:59:03.936Z,12.33
2018-12-19T12:01:32.066Z,9.40
2018-12-19T12:04:00.216Z,8.73
2018-12-19T12:06:28.340Z,9.90
2018-12-19T12:08:56.457Z,8.00
2018-12-19T12:11:24.582Z,10.20
2018-12-19T12:13:52.697Z,7.93
2018-12-19T12:16:20.914Z,8.83
2018-12-19T12:18:49.020Z,9.70
2018-12-19T12:21:17.145Z,8.33
2018-12-19T12:23:47.398Z,9.17
2018-12-19T12:26:15.359Z,10.00
2018-12-19T12:28:43.475Z,9.53
2018-12-19T12:31:11.665Z,11.43
2018-12-19T12:33:39.801Z,9.70
2018-12-19T12:36:08.191Z,10.17
2018-12-19T12:38:36.368Z,10.90
2018-12-19T12:41:04.484Z,9.43
2018-12-19T12:43:32.693Z,8.47
2018-12-19T12:46:00.916Z,9.33
2018-12-19T12:48:29.052Z,7.53
2018-12-19T12:50:57.156Z,7.10
2018-12-19T12:53:25.285Z,7.97
2018-12-19T12:55:53.498Z,11.07
2018-12-19T12:58:21.626Z,7.60
2018-12-19T13:00:49.757Z,8.77
2018-12-19T13:03:17.913Z,7.73
2018-12-19T13:05:46.036Z,9.30
2018-12-19T13:08:14.165Z,9.40
2018-12-19T13:10:42.349Z,12.37
2018-12-19T13:13:10.551Z,10.13
2018-12-19T13:15:43.632Z,8.90
2018-12-19T13:18:11.759Z,9.97
2018-12-19T13:20:39.898Z,7.70
2018-12-19T13:23:08.015Z,6.77
2018-12-19T13:25:36.212Z,8.30
2018-12-19T13:28:04.489Z,5.93
2018-12-19T13:30:32.601Z,10.70
2018-12-19T13:33:00.736Z,6.20
2018-12-19T13:35:28.932Z,7.33
2018-12-19T13:37:57.049Z,6.47
2018-12-19T13:40:25.323Z,7.53
2018-12-19T13:42:53.500Z,5.83
2018-12-19T13:45:21.619Z,7.40
2018-12-19T13:47:49.813Z,6.00
2018-12-19T13:50:17.933Z,7.23
2018-12-19T13:52:46.045Z,10.17
2018-12-19T13:55:14.242Z,7.93
2018-12-19T13:57:42.370Z,9.97
2018-12-19T14:00:11.412Z,6.97
2018-12-19T14:02:39.605Z,9.60
2018-12-19T14:05:07.812Z,9.87
2018-12-19T14:07:36.007Z,8.33
2018-12-19T14:10:04.794Z,9.23
2018-12-19T14:12:32.993Z,8.90
2018-12-19T14:15:01.112Z,8.97
2018-12-19T14:17:29.269Z,5.73
2018-12-19T14:19:57.513Z,7.70
2018-12-19T14:22:25.660Z,8.03
2018-12-19T14:24:53.808Z,7.63
2018-12-19T14:27:22.000Z,6.13
2018-12-19T14:29:50.158Z,8.80
2018-12-19T14:32:18.312Z,7.13
2018-12-19T14:34:46.433Z,8.03
2018-12-19T14:37:14.555Z,7.03
2018-12-19T14:39:42.672Z,7.43
2018-12-19T14:42:10.873Z,7.73
2018-12-19T14:44:39.000Z,5.83
2018-12-19T14:47:07.253Z,7.10
2018-12-19T14:49:35.487Z,8.07
2018-12-19T14:52:03.761Z,4.83
2018-12-19T14:54:31.896Z,7.50
2018-12-19T14:57:00.003Z,4.27
2018-12-19T14:59:28.128Z,6.27
2018-12-19T15:01:56.229Z,6.20
2018-12-19T15:04:24.430Z,7.17
2018-12-19T15:06:52.714Z,6.97
2018-12-19T15:09:21.193Z,8.00
2018-12-19T15:11:49.344Z,5.03
2018-12-19T15:14:17.465Z,6.90
2018-12-19T15:16:45.660Z,6.90
2018-12-19T15:19:13.808Z,7.13
2018-12-19T15:21:42.000Z,6.53
2018-12-19T15:24:10.272Z,9.10
2018-12-19T15:26:38.374Z,5.10
2018-12-19T15:29:06.496Z,5.37
2018-12-19T15:31:34.612Z,13.87
2018-12-19T15:34:03.015Z,8.00
2018-12-19T15:36:31.421Z,41.80
2018-12-19T15:38:59.640Z,64.90
2018-12-19T15:41:27.921Z,5.70
2018-12-19T15:43:56.037Z,8.63
2018-12-19T15:46:24.231Z,9.37
2018-12-19T15:48:52.371Z,7.70
2018-12-19T15:51:20.597Z,12.57
2018-12-19T15:53:48.714Z,14.30
2018-12-19T15:56:16.829Z,10.40
2018-12-19T15:58:44.944Z,5.43
2018-12-19T16:01:13.146Z,9.17
2018-12-19T16:03:41.263Z,10.93
2018-12-19T16:06:09.370Z,10.43
2018-12-19T16:08:37.563Z,10.80
2018-12-19T16:11:05.694Z,9.97
2018-12-19T16:13:33.876Z,8.80
2018-12-19T16:16:02.263Z,7.13
2018-12-19T16:18:30.463Z,10.10
2018-12-19T16:20:58.651Z,9.93
2018-12-19T16:23:26.770Z,10.30
2018-12-19T16:25:54.897Z,11.80
2018-12-19T16:28:23.037Z,9.63
2018-12-19T16:30:51.174Z,12.93
2018-12-19T16:33:19.290Z,12.20
2018-12-19T16:35:47.430Z,10.37
2018-12-19T16:38:15.536Z,11.53
2018-12-19T16:40:43.685Z,13.97
2018-12-19T16:43:11.799Z,11.07
2018-12-19T16:45:39.934Z,13.63
2018-12-19T16:48:08.133Z,11.30
2018-12-19T16:50:36.328Z,9.23
2018-12-19T16:53:05.333Z,9.30
2018-12-19T16:55:33.433Z,10.13
2018-12-19T16:58:01.552Z,14.43
2018-12-19T17:00:29.761Z,12.03
2018-12-19T17:02:57.916Z,11.17
2018-12-19T17:05:26.018Z,14.37
2018-12-19T17:07:54.120Z,12.23
2018-12-19T17:10:22.236Z,9.63
2018-12-19T17:12:52.853Z,11.47
2018-12-19T17:15:20.570Z,13.97
2018-12-19T17:17:48.786Z,12.77
2018-12-19T17:20:16.956Z,13.20
2018-12-19T17:22:45.170Z,15.27
2018-12-19T17:25:13.261Z,12.50
2018-12-19T17:27:41.386Z,12.63
2018-12-19T17:30:09.681Z,15.10
2018-12-19T17:32:37.877Z,14.50
2018-12-19T17:35:06.936Z,19.00
2018-12-19T17:37:35.068Z,15.13
2018-12-19T17:40:03.676Z,14.10
2018-12-19T17:42:31.798Z,14.73
2018-12-19T17:44:59.971Z,13.40
2018-12-19T17:47:28.244Z,13.43
2018-12-19T17:49:56.398Z,9.70
2018-12-19T17:52:24.498Z,13.73
2018-12-19T17:54:52.701Z,11.80
2018-12-19T17:57:20.830Z,9.60
2018-12-19T17:59:48.950Z,9.77
2018-12-19T18:02:17.156Z,13.40
2018-12-19T18:04:45.278Z,10.77
2018-12-19T18:07:13.498Z,12.53
2018-12-19T18:09:41.774Z,9.93
2018-12-19T18:12:09.880Z,11.57
2018-12-19T18:14:38.077Z,10.73
2018-12-19T18:17:06.204Z,11.20
2018-12-19T18:19:34.405Z,10.90
2018-12-19T18:22:02.517Z,11.37
2018-12-19T18:24:30.694Z,26.90
2018-12-19T18:26:58.986Z,14.20
2018-12-19T18:29:27.172Z,15.40
2018-12-19T18:31:55.338Z,11.93
2018-12-19T18:34:23.473Z,11.47
2018-12-19T18:36:51.627Z,11.23
2018-12-19T18:39:25.952Z,11.47
2018-12-19T18:41:49.929Z,12.70
2018-12-19T18:44:18.155Z,15.30
2018-12-19T18:46:46.304Z,11.80
2018-12-19T18:49:14.427Z,11.60
2018-12-19T18:51:42.563Z,13.77
2018-12-19T18:54:10.680Z,13.93
2018-12-19T18:56:38.830Z,13.23
2018-12-19T18:59:07.224Z,12.90
2018-12-19T19:01:35.423Z,16.53
2018-12-19T19:04:03.744Z,12.10
2018-12-19T19:06:32.045Z,13.83
2018-12-19T19:09:00.192Z,12.30
2018-12-19T19:11:28.405Z,15.60
2018-12-19T19:13:56.545Z,12.33
2018-12-19T19:16:24.885Z,12.00
2018-12-19T19:18:53.084Z,11.50
2018-12-19T19:21:21.329Z,11.80
2018-12-19T19:23:49.457Z,11.73
2018-12-19T19:26:17.629Z,10.83
2018-12-19T19:28:45.820Z,10.87
2018-12-19T19:31:14.224Z,12.57
2018-12-19T19:33:42.353Z,11.73
2018-12-19T19:36:10.468Z,13.20
2018-12-19T19:38:38.582Z,11.43
2018-12-19T19:41:06.700Z,14.47
2018-12-19T19:43:34.914Z,11.67
2018-12-19T19:46:03.214Z,12.90
2018-12-19T19:48:31.373Z,12.93
2018-12-19T19:50:59.505Z,13.93
2018-12-19T19:53:27.653Z,14.77
2018-12-19T19:55:55.776Z,12.47
2018-12-19T19:58:23.909Z,13.37
2018-12-19T20:00:52.038Z,11.77
2018-12-19T20:03:20.152Z,13.17
2018-12-19T20:05:48.282Z,11.23
2018-12-19T20:08:16.490Z,14.53
2018-12-19T20:10:44.600Z,13.50
2018-12-19T20:13:12.844Z,14.97
2018-12-19T20:15:40.964Z,13.83
2018-12-19T20:18:11.268Z,11.60
2018-12-19T20:20:39.481Z,13.03
2018-12-19T20:23:07.780Z,14.50
2018-12-19T20:25:36.057Z,13.83
2018-12-19T20:28:04.281Z,15.30
2018-12-19T20:30:32.481Z,16.47
2018-12-19T20:33:00.690Z,13.23
2018-12-19T20:35:28.822Z,17.40
2018-12-19T20:37:56.957Z,15.47
2018-12-19T20:40:25.082Z,14.50
2018-12-19T20:42:53.222Z,12.57
2018-12-19T20:45:21.347Z,14.07
2018-12-19T20:47:49.556Z,15.47
2018-12-19T20:50:17.806Z,14.27
2018-12-19T20:52:46.054Z,13.10
2018-12-19T20:55:14.168Z,14.53
2018-12-19T20:57:42.389Z,15.37
2018-12-19T21:00:10.745Z,16.33
2018-12-19T21:02:38.923Z,17.53
2018-12-19T21:05:07.213Z,14.57
2018-12-19T21:07:35.336Z,14.07
2018-12-19T21:10:04.462Z,14.73
2018-12-19T21:12:32.588Z,18.60
2018-12-19T21:15:00.789Z,15.87
2018-12-19T21:17:34.445Z,15.20
2018-12-19T21:20:02.707Z,14.77
2018-12-19T21:22:30.974Z,14.30
2018-12-19T21:24:59.084Z,16.10
2018-12-19T21:27:27.277Z,19.77
2018-12-19T21:29:55.433Z,16.83
2018-12-19T21:32:23.556Z,14.83
2018-12-19T21:34:51.748Z,15.47
2018-12-19T21:37:19.932Z,18.00
2018-12-19T21:39:48.092Z,18.87
2018-12-19T21:42:16.317Z,16.47
2018-12-19T21:44:44.507Z,15.87
2018-12-19T21:47:12.702Z,19.10
2018-12-19T21:49:40.899Z,15.93
2018-12-19T21:52:09.109Z,14.17
2018-12-19T21:54:37.309Z,19.03
2018-12-19T21:57:05.425Z,19.57
2018-12-19T21:59:33.658Z,15.63
2018-12-19T22:02:01.879Z,16.23
2018-12-19T22:04:30.076Z,18.17
2018-12-19T22:06:58.418Z,18.73
2018-12-19T22:09:26.630Z,24.77
2018-12-19T22:11:54.912Z,19.50
2018-12-19T22:14:23.130Z,21.70
2018-12-19T22:16:56.720Z,19.33
2018-12-19T22:19:24.966Z,18.60
2018-12-19T22:21:53.085Z,20.53
2018-12-19T22:24:21.304Z,17.47
2018-12-19T22:26:49.502Z,21.60
2018-12-19T22:29:17.729Z,18.13
2018-12-19T22:31:45.947Z,25.50
2018-12-19T22:34:14.274Z,22.57
2018-12-19T22:36:42.432Z,20.27
2018-12-19T22:39:14.834Z,23.13
2018-12-19T22:41:43.023Z,20.57
2018-12-19T22:44:11.234Z,18.87
2018-12-19T22:46:39.354Z,22.97
2018-12-19T22:49:07.619Z,21.57
2018-12-19T22:51:36.000Z,21.70
2018-12-19T22:54:04.200Z,21.27
2018-12-19T22:56:32.409Z,19.03
2018-12-19T22:59:00.626Z,24.10
2018-12-19T23:01:34.402Z,28.57
2018-12-19T23:04:06.568Z,22.27
2018-12-19T23:06:35.965Z,20.53
2018-12-19T23:09:06.721Z,20.50
2018-12-19T23:11:34.840Z,23.43
2018-12-19T23:14:03.754Z,19.13
2018-12-19T23:16:32.188Z,18.33
2018-12-19T23:19:00.390Z,19.70
2018-12-19T23:21:28.597Z,21.20
2018-12-19T23:23:56.764Z,17.10
2018-12-19T23:26:25.082Z,17.83
2018-12-19T23:28:57.545Z,24.13
2018-12-19T23:31:25.669Z,21.70
2018-12-19T23:33:53.850Z,22.13
2018-12-19T23:36:22.104Z,23.97
2018-12-19T23:38:50.324Z,21.73
2018-12-19T23:41:18.443Z,20.67
2018-12-19T23:43:46.597Z,25.60
2018-12-19T23:46:14.947Z,18.90
2018-12-19T23:48:43.143Z,18.60
2018-12-19T23:51:11.279Z,21.00
2018-12-19T23:53:39.790Z,20.83
2018-12-19T23:56:08.002Z,19.50
2018-12-19T23:58:36.214Z,20.40
